C6053 KMOB-KMOB
Flight info
| Callsign | C6053 |
|---|---|
| Flight time | 2h 40m |
| Altitude | 1000 |
| Route | VFR |
| Aircraft | H60/L-SDGRY/C |
Departure
| Time | 2026-04-11 22:33 |
|---|---|
| Airport | Mobile Regional Airport (KMOB) |
Arrival
| Time | 2026-04-12 01:14 |
|---|---|
| Airport | Mobile Regional Airport (KMOB) |
| Time | Latitude | Longitude | Altitude | Speed | Heading |
|---|---|---|---|---|---|
| 2026-04-11 21:51 | 30.69380 | -88.24174 | 220 ft | 0 kts | 2° |
| 2026-04-11 22:31 | 30.69384 | -88.24174 | 236 ft | 3 kts | 356° |
| 2026-04-11 22:31 | 30.69402 | -88.24196 | 256 ft | 6 kts | 271° |
| 2026-04-11 22:31 | 30.69413 | -88.24285 | 261 ft | 21 kts | 332° |
| 2026-04-11 22:31 | 30.69481 | -88.24459 | 240 ft | 21 kts | 262° |
| 2026-04-11 22:32 | 30.69469 | -88.24573 | 239 ft | 9 kts | 262° |
| 2026-04-11 22:32 | 30.69451 | -88.24688 | 236 ft | 19 kts | 206° |
| 2026-04-11 22:32 | 30.69175 | -88.24676 | 299 ft | 76 kts | 179° |
| 2026-04-11 22:32 | 30.68485 | -88.24672 | 374 ft | 114 kts | 179° |
| 2026-04-11 22:33 | 30.67725 | -88.24678 | 481 ft | 104 kts | 175° |
| 2026-04-11 22:33 | 30.66963 | -88.24588 | 661 ft | 124 kts | 172° |
| 2026-04-11 22:33 | 30.66080 | -88.24380 | 836 ft | 125 kts | 167° |
| 2026-04-11 22:33 | 30.65230 | -88.24097 | 953 ft | 128 kts | 163° |
| 2026-04-11 22:34 | 30.64414 | -88.23913 | 1071 ft | 101 kts | 181° |
| 2026-04-11 22:34 | 30.63784 | -88.23808 | 1081 ft | 86 kts | 169° |
| 2026-04-11 22:34 | 30.63067 | -88.23555 | 969 ft | 129 kts | 170° |
| 2026-04-11 22:34 | 30.62099 | -88.23301 | 984 ft | 152 kts | 166° |
| 2026-04-11 22:35 | 30.61026 | -88.23113 | 971 ft | 155 kts | 175° |
| 2026-04-11 22:35 | 30.60141 | -88.22943 | 1012 ft | 112 kts | 175° |
| 2026-04-11 22:35 | 30.59382 | -88.22771 | 1016 ft | 112 kts | 175° |
| 2026-04-11 22:35 | 30.58629 | -88.22589 | 1004 ft | 114 kts | 173° |
| 2026-04-11 22:36 | 30.57845 | -88.22402 | 1004 ft | 111 kts | 174° |
| 2026-04-11 22:36 | 30.57108 | -88.22241 | 1007 ft | 104 kts | 176° |
| 2026-04-11 22:36 | 30.56425 | -88.22081 | 1036 ft | 98 kts | 171° |
| 2026-04-11 22:36 | 30.55791 | -88.21888 | 1040 ft | 95 kts | 171° |
| 2026-04-11 22:37 | 30.55161 | -88.21726 | 1008 ft | 90 kts | 171° |
| 2026-04-11 22:37 | 30.54584 | -88.21556 | 1100 ft | 86 kts | 174° |
| 2026-04-11 22:37 | 30.53957 | -88.21438 | 976 ft | 97 kts | 177° |
| 2026-04-11 22:37 | 30.53351 | -88.21351 | 1019 ft | 80 kts | 169° |
| 2026-04-11 22:38 | 30.52713 | -88.21158 | 1069 ft | 107 kts | 169° |
| 2026-04-11 22:38 | 30.52020 | -88.20936 | 1177 ft | 116 kts | 167° |
| 2026-04-11 22:38 | 30.51096 | -88.20729 | 985 ft | 149 kts | 172° |
| 2026-04-11 22:38 | 30.50021 | -88.20550 | 963 ft | 163 kts | 172° |
| 2026-04-11 22:39 | 30.48930 | -88.20349 | 976 ft | 150 kts | 173° |
| 2026-04-11 22:39 | 30.47972 | -88.20208 | 985 ft | 128 kts | 172° |
| 2026-04-11 22:39 | 30.47191 | -88.20051 | 1059 ft | 98 kts | 170° |
| 2026-04-11 22:39 | 30.46568 | -88.19947 | 1048 ft | 86 kts | 171° |
| 2026-04-11 22:40 | 30.46037 | -88.19877 | 1077 ft | 71 kts | 171° |
| 2026-04-11 22:40 | 30.45506 | -88.19806 | 1009 ft | 88 kts | 173° |
| 2026-04-11 22:40 | 30.44897 | -88.19690 | 790 ft | 96 kts | 168° |
| 2026-04-11 22:40 | 30.44318 | -88.19594 | 984 ft | 65 kts | 169° |
| 2026-04-11 22:41 | 30.43870 | -88.19326 | 1177 ft | 79 kts | 165° |
| 2026-04-11 22:41 | 30.43334 | -88.18992 | 1199 ft | 90 kts | 163° |
| 2026-04-11 22:41 | 30.42773 | -88.18628 | 1243 ft | 88 kts | 159° |
| 2026-04-11 22:41 | 30.42391 | -88.18142 | 1229 ft | 99 kts | 130° |
| 2026-04-11 22:42 | 30.41989 | -88.17380 | 777 ft | 125 kts | 144° |
| 2026-04-11 22:42 | 30.41302 | -88.16802 | 655 ft | 120 kts | 153° |
| 2026-04-11 22:42 | 30.40543 | -88.16380 | 659 ft | 121 kts | 164° |
| 2026-04-11 22:43 | 30.38965 | -88.16470 | 678 ft | 129 kts | 217° |
| 2026-04-11 22:43 | 30.38307 | -88.17186 | 839 ft | 138 kts | 221° |
| 2026-04-11 22:43 | 30.37596 | -88.18058 | 599 ft | 154 kts | 224° |
| 2026-04-11 22:43 | 30.36685 | -88.18581 | 689 ft | 151 kts | 192° |
| 2026-04-11 22:44 | 30.35575 | -88.18746 | 502 ft | 171 kts | 180° |
| 2026-04-11 22:44 | 30.34532 | -88.18393 | 680 ft | 155 kts | 150° |
| 2026-04-11 22:44 | 30.33628 | -88.17680 | 804 ft | 160 kts | 149° |
| 2026-04-11 22:44 | 30.32589 | -88.17248 | 918 ft | 154 kts | 165° |
| 2026-04-11 22:45 | 30.31564 | -88.16945 | 790 ft | 154 kts | 166° |
| 2026-04-11 22:45 | 30.30487 | -88.16642 | 836 ft | 164 kts | 169° |
| 2026-04-11 22:45 | 30.29374 | -88.16448 | 941 ft | 160 kts | 173° |
| 2026-04-11 22:45 | 30.28249 | -88.16277 | 981 ft | 165 kts | 172° |
| 2026-04-11 22:46 | 30.27104 | -88.16116 | 1004 ft | 167 kts | 174° |
| 2026-04-11 22:46 | 30.26107 | -88.15982 | 1022 ft | 119 kts | 176° |
| 2026-04-11 22:46 | 30.25306 | -88.15842 | 1035 ft | 114 kts | 178° |
| 2026-04-11 22:46 | 30.24530 | -88.15700 | 1029 ft | 114 kts | 174° |
| 2026-04-11 22:47 | 30.23744 | -88.15559 | 1031 ft | 113 kts | 173° |
| 2026-04-11 22:47 | 30.22954 | -88.15414 | 1023 ft | 113 kts | 173° |
| 2026-04-11 22:47 | 30.22166 | -88.15297 | 1041 ft | 117 kts | 174° |
| 2026-04-11 22:47 | 30.21374 | -88.15226 | 1022 ft | 112 kts | 177° |
| 2026-04-11 22:48 | 30.20575 | -88.15141 | 1007 ft | 114 kts | 175° |
| 2026-04-11 22:48 | 30.19786 | -88.15068 | 1020 ft | 113 kts | 176° |
| 2026-04-11 22:48 | 30.18979 | -88.14972 | 1029 ft | 120 kts | 174° |
| 2026-04-11 22:48 | 30.18195 | -88.14889 | 1009 ft | 113 kts | 176° |
| 2026-04-11 22:49 | 30.17407 | -88.14793 | 1022 ft | 116 kts | 175° |
| 2026-04-11 22:49 | 30.16596 | -88.14697 | 1030 ft | 114 kts | 175° |
| 2026-04-11 22:49 | 30.15820 | -88.14613 | 1026 ft | 110 kts | 175° |
| 2026-04-11 22:49 | 30.15039 | -88.14534 | 1025 ft | 114 kts | 173° |
| 2026-04-11 22:50 | 30.14236 | -88.14465 | 1028 ft | 118 kts | 173° |
| 2026-04-11 22:50 | 30.13430 | -88.14407 | 1019 ft | 113 kts | 176° |
| 2026-04-11 22:50 | 30.12613 | -88.14358 | 1018 ft | 121 kts | 177° |
| 2026-04-11 22:50 | 30.11792 | -88.14343 | 1020 ft | 113 kts | 176° |
| 2026-04-11 22:51 | 30.10998 | -88.14311 | 1023 ft | 115 kts | 178° |
| 2026-04-11 22:51 | 30.10204 | -88.14292 | 1021 ft | 112 kts | 171° |
| 2026-04-11 22:51 | 30.09401 | -88.14398 | 1027 ft | 120 kts | 188° |
| 2026-04-11 22:51 | 30.08551 | -88.14614 | 1028 ft | 123 kts | 190° |
| 2026-04-11 22:52 | 30.07737 | -88.14827 | 1023 ft | 121 kts | 189° |
| 2026-04-11 22:52 | 30.06925 | -88.15041 | 1015 ft | 118 kts | 191° |
| 2026-04-11 22:52 | 30.06120 | -88.15256 | 1024 ft | 120 kts | 192° |
| 2026-04-11 22:52 | 30.05295 | -88.15489 | 1030 ft | 124 kts | 192° |
| 2026-04-11 22:53 | 30.04482 | -88.15704 | 1026 ft | 116 kts | 187° |
| 2026-04-11 22:53 | 30.03662 | -88.15850 | 940 ft | 122 kts | 186° |
| 2026-04-11 22:53 | 30.02833 | -88.15959 | 791 ft | 119 kts | 183° |
| 2026-04-11 22:53 | 30.02005 | -88.16055 | 585 ft | 117 kts | 182° |
| 2026-04-11 22:54 | 30.01193 | -88.16134 | 444 ft | 115 kts | 181° |
| 2026-04-11 22:54 | 30.00385 | -88.16203 | 329 ft | 120 kts | 181° |
| 2026-04-11 22:54 | 29.99575 | -88.16246 | 324 ft | 106 kts | 180° |
| 2026-04-11 22:54 | 29.98887 | -88.16273 | 334 ft | 92 kts | 180° |
| 2026-04-11 22:55 | 29.97713 | -88.16274 | 322 ft | 83 kts | 176° |
| 2026-04-11 22:55 | 29.97156 | -88.16254 | 312 ft | 77 kts | 171° |
| 2026-04-11 22:55 | 29.96605 | -88.16201 | 316 ft | 84 kts | 172° |
| 2026-04-11 22:56 | 29.96040 | -88.16135 | 319 ft | 82 kts | 172° |
| 2026-04-11 22:56 | 29.95461 | -88.16051 | 307 ft | 82 kts | 172° |
| 2026-04-11 22:56 | 29.94894 | -88.15958 | 328 ft | 87 kts | 172° |
| 2026-04-11 22:56 | 29.94330 | -88.15857 | 311 ft | 85 kts | 174° |
| 2026-04-11 22:57 | 29.93847 | -88.15624 | 307 ft | 74 kts | 123° |
| 2026-04-11 22:57 | 29.93755 | -88.15014 | 326 ft | 76 kts | 92° |
| 2026-04-11 22:57 | 29.93735 | -88.14381 | 331 ft | 83 kts | 82° |
| 2026-04-11 22:57 | 29.94191 | -88.14037 | 316 ft | 87 kts | 351° |
| 2026-04-11 22:58 | 29.94516 | -88.14629 | 356 ft | 92 kts | 279° |
| 2026-04-11 22:58 | 29.94566 | -88.15271 | 362 ft | 88 kts | 271° |
| 2026-04-11 22:58 | 29.94583 | -88.16021 | 288 ft | 97 kts | 268° |
| 2026-04-11 22:58 | 29.94775 | -88.16574 | 159 ft | 33 kts | 70° |
| 2026-04-11 22:59 | 29.94813 | -88.16556 | 70 ft | 1 kts | 118° |
| 2026-04-11 22:59 | 29.94813 | -88.16555 | 38 ft | 0 kts | 118° |
| 2026-04-11 22:59 | 29.94813 | -88.16556 | 41 ft | 0 kts | 118° |
| 2026-04-11 23:00 | 29.94816 | -88.16568 | 40 ft | 4 kts | 118° |
| 2026-04-11 23:00 | 29.94819 | -88.16573 | 44 ft | 1 kts | 118° |
| 2026-04-11 23:00 | 29.94820 | -88.16573 | 44 ft | 0 kts | 118° |
| 2026-04-11 23:01 | 29.94819 | -88.16574 | 45 ft | 0 kts | 118° |
| 2026-04-11 23:02 | 29.94819 | -88.16575 | 45 ft | 1 kts | 118° |
| 2026-04-11 23:02 | 29.94820 | -88.16575 | 45 ft | 1 kts | 118° |
| 2026-04-11 23:03 | 29.94818 | -88.16576 | 48 ft | 0 kts | 118° |
| 2026-04-11 23:03 | 29.94650 | -88.16498 | 126 ft | 60 kts | 153° |
| 2026-04-11 23:04 | 29.94348 | -88.16762 | 261 ft | 88 kts | 253° |
| 2026-04-11 23:04 | 29.93988 | -88.17323 | 320 ft | 85 kts | 169° |
| 2026-04-11 23:04 | 29.93809 | -88.16752 | 352 ft | 94 kts | 86° |
| 2026-04-11 23:04 | 29.93884 | -88.16096 | 309 ft | 76 kts | 85° |
| 2026-04-11 23:05 | 29.93950 | -88.15548 | 272 ft | 78 kts | 49° |
| 2026-04-11 23:05 | 29.94372 | -88.15664 | 324 ft | 74 kts | 275° |
| 2026-04-11 23:05 | 29.94384 | -88.16305 | 348 ft | 102 kts | 269° |
| 2026-04-11 23:05 | 29.94480 | -88.17129 | 306 ft | 90 kts | 278° |
| 2026-04-11 23:06 | 29.94339 | -88.17645 | 253 ft | 60 kts | 200° |
| 2026-04-11 23:06 | 29.93996 | -88.17496 | 315 ft | 61 kts | 135° |
| 2026-04-11 23:06 | 29.93775 | -88.16957 | 324 ft | 84 kts | 110° |
| 2026-04-11 23:06 | 29.93686 | -88.16258 | 301 ft | 94 kts | 94° |
| 2026-04-11 23:07 | 29.93673 | -88.15473 | 306 ft | 102 kts | 91° |
| 2026-04-11 23:07 | 29.93838 | -88.14745 | 300 ft | 90 kts | 28° |
| 2026-04-11 23:07 | 29.94351 | -88.14719 | 334 ft | 60 kts | 281° |
| 2026-04-11 23:07 | 29.94425 | -88.15259 | 296 ft | 82 kts | 266° |
| 2026-04-11 23:08 | 29.94436 | -88.16005 | 285 ft | 102 kts | 271° |
| 2026-04-11 23:08 | 29.94248 | -88.16748 | 289 ft | 99 kts | 206° |
| 2026-04-11 23:08 | 29.93677 | -88.16655 | 328 ft | 87 kts | 111° |
| 2026-04-11 23:08 | 29.93642 | -88.15928 | 299 ft | 93 kts | 87° |
| 2026-04-11 23:09 | 29.93685 | -88.15176 | 293 ft | 96 kts | 86° |
| 2026-04-11 23:09 | 29.93951 | -88.14533 | 295 ft | 97 kts | 26° |
| 2026-04-11 23:09 | 29.94505 | -88.14782 | 315 ft | 97 kts | 300° |
| 2026-04-11 23:09 | 29.94799 | -88.15576 | 319 ft | 116 kts | 284° |
| 2026-04-11 23:10 | 29.94965 | -88.16484 | 326 ft | 113 kts | 272° |
| 2026-04-11 23:10 | 29.94738 | -88.17291 | 317 ft | 104 kts | 224° |
| 2026-04-11 23:10 | 29.94127 | -88.17438 | 347 ft | 87 kts | 165° |
| 2026-04-11 23:10 | 29.93778 | -88.17004 | 334 ft | 82 kts | 97° |
| 2026-04-11 23:11 | 29.93800 | -88.16386 | 337 ft | 75 kts | 90° |
| 2026-04-11 23:11 | 29.93812 | -88.15757 | 326 ft | 80 kts | 87° |
| 2026-04-11 23:11 | 29.94234 | -88.15429 | 286 ft | 82 kts | 359° |
| 2026-04-11 23:11 | 29.94588 | -88.15773 | 305 ft | 60 kts | 272° |
| 2026-04-11 23:12 | 29.94615 | -88.16064 | 428 ft | 48 kts | 275° |
| 2026-04-11 23:12 | 29.94640 | -88.16428 | 350 ft | 56 kts | 253° |
| 2026-04-11 23:12 | 29.94331 | -88.16664 | 289 ft | 45 kts | 171° |
| 2026-04-11 23:12 | 29.94131 | -88.16522 | 160 ft | 43 kts | 148° |
| 2026-04-11 23:13 | 29.93888 | -88.16104 | 223 ft | 82 kts | 104° |
| 2026-04-11 23:13 | 29.93807 | -88.15423 | 271 ft | 89 kts | 96° |
| 2026-04-11 23:13 | 29.93864 | -88.14710 | 311 ft | 89 kts | 51° |
| 2026-04-11 23:13 | 29.94379 | -88.14637 | 305 ft | 78 kts | 305° |
| 2026-04-11 23:14 | 29.94509 | -88.15231 | 311 ft | 83 kts | 261° |
| 2026-04-11 23:14 | 29.94430 | -88.15978 | 300 ft | 101 kts | 261° |
| 2026-04-11 23:14 | 29.94113 | -88.16640 | 293 ft | 93 kts | 189° |
| 2026-04-11 23:14 | 29.93670 | -88.16312 | 329 ft | 82 kts | 92° |
| 2026-04-11 23:15 | 29.93711 | -88.15595 | 328 ft | 96 kts | 88° |
| 2026-04-11 23:15 | 29.93790 | -88.14787 | 266 ft | 107 kts | 81° |
| 2026-04-11 23:15 | 29.94306 | -88.14376 | 277 ft | 94 kts | 336° |
| 2026-04-11 23:15 | 29.94583 | -88.14957 | 286 ft | 90 kts | 265° |
| 2026-04-11 23:16 | 29.94488 | -88.15741 | 297 ft | 111 kts | 263° |
| 2026-04-11 23:16 | 29.94367 | -88.16653 | 319 ft | 115 kts | 243° |
| 2026-04-11 23:16 | 29.93791 | -88.16958 | 292 ft | 92 kts | 143° |
| 2026-04-11 23:16 | 29.93640 | -88.16243 | 319 ft | 104 kts | 94° |
| 2026-04-11 23:17 | 29.93656 | -88.15367 | 288 ft | 115 kts | 90° |
| 2026-04-11 23:17 | 29.93790 | -88.14453 | 261 ft | 109 kts | 50° |
| 2026-04-11 23:17 | 29.94338 | -88.14419 | 284 ft | 87 kts | 314° |
| 2026-04-11 23:17 | 29.94561 | -88.15087 | 274 ft | 98 kts | 265° |
| 2026-04-11 23:18 | 29.94484 | -88.15930 | 276 ft | 111 kts | 258° |
| 2026-04-11 23:18 | 29.94012 | -88.16456 | 285 ft | 96 kts | 172° |
| 2026-04-11 23:18 | 29.93714 | -88.15880 | 306 ft | 97 kts | 91° |
| 2026-04-11 23:18 | 29.93742 | -88.15061 | 256 ft | 103 kts | 91° |
| 2026-04-11 23:19 | 29.93918 | -88.14292 | 279 ft | 104 kts | 46° |
| 2026-04-11 23:19 | 29.94557 | -88.14361 | 266 ft | 102 kts | 304° |
| 2026-04-11 23:19 | 29.94613 | -88.15189 | 284 ft | 108 kts | 255° |
| 2026-04-11 23:19 | 29.94458 | -88.16048 | 292 ft | 105 kts | 253° |
| 2026-04-11 23:20 | 29.93964 | -88.16421 | 272 ft | 88 kts | 164° |
| 2026-04-11 23:20 | 29.93647 | -88.15880 | 290 ft | 90 kts | 99° |
| 2026-04-11 23:20 | 29.93731 | -88.15125 | 263 ft | 99 kts | 85° |
| 2026-04-11 23:20 | 29.93917 | -88.14398 | 327 ft | 92 kts | 51° |
| 2026-04-11 23:21 | 29.94489 | -88.14355 | 364 ft | 89 kts | 318° |
| 2026-04-11 23:21 | 29.94682 | -88.15028 | 295 ft | 98 kts | 262° |
| 2026-04-11 23:21 | 29.94553 | -88.15837 | 251 ft | 107 kts | 253° |
| 2026-04-11 23:21 | 29.94409 | -88.16661 | 272 ft | 108 kts | 259° |
| 2026-04-11 23:22 | 29.94359 | -88.17541 | 322 ft | 108 kts | 259° |
| 2026-04-11 23:22 | 29.93923 | -88.17949 | 325 ft | 76 kts | 159° |
| 2026-04-11 23:22 | 29.93702 | -88.17421 | 305 ft | 86 kts | 101° |
| 2026-04-11 23:22 | 29.93668 | -88.16670 | 325 ft | 103 kts | 92° |
| 2026-04-11 23:23 | 29.93692 | -88.15858 | 378 ft | 103 kts | 88° |
| 2026-04-11 23:23 | 29.93811 | -88.14978 | 221 ft | 109 kts | 97° |
| 2026-04-11 23:23 | 29.93758 | -88.14196 | 279 ft | 98 kts | 68° |
| 2026-04-11 23:23 | 29.94283 | -88.13835 | 278 ft | 96 kts | 331° |
| 2026-04-11 23:24 | 29.94594 | -88.14430 | 271 ft | 96 kts | 276° |
| 2026-04-11 23:24 | 29.94684 | -88.15294 | 237 ft | 118 kts | 273° |
| 2026-04-11 23:24 | 29.94695 | -88.16225 | 309 ft | 112 kts | 249° |
| 2026-04-11 23:24 | 29.94135 | -88.16627 | 325 ft | 92 kts | 160° |
| 2026-04-11 23:25 | 29.93784 | -88.16088 | 282 ft | 93 kts | 101° |
| 2026-04-11 23:25 | 29.93700 | -88.15283 | 246 ft | 106 kts | 95° |
| 2026-04-11 23:25 | 29.93742 | -88.14434 | 363 ft | 113 kts | 63° |
| 2026-04-11 23:25 | 29.94366 | -88.13988 | 389 ft | 103 kts | 338° |
| 2026-04-11 23:26 | 29.94693 | -88.14523 | 255 ft | 93 kts | 262° |
| 2026-04-11 23:26 | 29.94564 | -88.15332 | 254 ft | 108 kts | 277° |
| 2026-04-11 23:26 | 29.94599 | -88.16174 | 322 ft | 113 kts | 277° |
| 2026-04-11 23:26 | 29.94376 | -88.16937 | 279 ft | 96 kts | 193° |
| 2026-04-11 23:27 | 29.93920 | -88.16563 | 248 ft | 94 kts | 108° |
| 2026-04-11 23:27 | 29.93789 | -88.15729 | 259 ft | 115 kts | 100° |
| 2026-04-11 23:27 | 29.93759 | -88.14789 | 230 ft | 119 kts | 84° |
| 2026-04-11 23:27 | 29.94230 | -88.14129 | 290 ft | 114 kts | 7° |
| 2026-04-11 23:28 | 29.94737 | -88.14635 | 317 ft | 103 kts | 271° |
| 2026-04-11 23:28 | 29.94763 | -88.15496 | 334 ft | 115 kts | 271° |
| 2026-04-11 23:28 | 29.94609 | -88.16444 | 223 ft | 113 kts | 210° |
| 2026-04-11 23:28 | 29.94007 | -88.16331 | 343 ft | 103 kts | 124° |
| 2026-04-11 23:29 | 29.93791 | -88.15498 | 308 ft | 117 kts | 103° |
| 2026-04-11 23:29 | 29.93720 | -88.14523 | 260 ft | 119 kts | 91° |
| 2026-04-11 23:29 | 29.94045 | -88.13703 | 319 ft | 113 kts | 41° |
| 2026-04-11 23:29 | 29.94731 | -88.13863 | 247 ft | 112 kts | 303° |
| 2026-04-11 23:30 | 29.94806 | -88.14756 | 270 ft | 119 kts | 265° |
| 2026-04-11 23:30 | 29.94760 | -88.15699 | 456 ft | 123 kts | 265° |
| 2026-04-11 23:30 | 29.94438 | -88.16582 | 341 ft | 117 kts | 209° |
| 2026-04-11 23:30 | 29.93789 | -88.16586 | 489 ft | 84 kts | 132° |
| 2026-04-11 23:31 | 29.93327 | -88.15976 | 510 ft | 116 kts | 131° |
| 2026-04-11 23:31 | 29.92783 | -88.15210 | 302 ft | 139 kts | 130° |
| 2026-04-11 23:31 | 29.92332 | -88.14386 | 324 ft | 97 kts | 123° |
| 2026-04-11 23:31 | 29.92276 | -88.13581 | 341 ft | 123 kts | 72° |
| 2026-04-11 23:32 | 29.92925 | -88.13038 | 258 ft | 114 kts | 9° |
| 2026-04-11 23:32 | 29.93568 | -88.13482 | 279 ft | 116 kts | 302° |
| 2026-04-11 23:32 | 29.93584 | -88.14278 | 522 ft | 94 kts | 252° |
| 2026-04-11 23:32 | 29.93170 | -88.15037 | 233 ft | 116 kts | 226° |
| 2026-04-11 23:33 | 29.92623 | -88.15033 | 229 ft | 84 kts | 97° |
| 2026-04-11 23:33 | 29.93086 | -88.14754 | 172 ft | 87 kts | 9° |
| 2026-04-11 23:33 | 29.93560 | -88.14482 | 150 ft | 73 kts | 46° |
| 2026-04-11 23:33 | 29.94014 | -88.14027 | 187 ft | 92 kts | 21° |
| 2026-04-11 23:34 | 29.94542 | -88.14319 | 200 ft | 107 kts | 302° |
| 2026-04-11 23:34 | 29.94917 | -88.15118 | 190 ft | 117 kts | 292° |
| 2026-04-11 23:34 | 29.95290 | -88.16000 | 191 ft | 126 kts | 295° |
| 2026-04-11 23:34 | 29.95277 | -88.16667 | 239 ft | 74 kts | 168° |
| 2026-04-11 23:35 | 29.94930 | -88.16287 | 253 ft | 77 kts | 122° |
| 2026-04-11 23:35 | 29.94576 | -88.15763 | 288 ft | 82 kts | 133° |
| 2026-04-11 23:35 | 29.94226 | -88.15282 | 292 ft | 72 kts | 124° |
| 2026-04-11 23:35 | 29.94007 | -88.14745 | 228 ft | 75 kts | 110° |
| 2026-04-11 23:36 | 29.93933 | -88.14076 | 245 ft | 96 kts | 95° |
| 2026-04-11 23:36 | 29.93978 | -88.13269 | 217 ft | 102 kts | 83° |
| 2026-04-11 23:36 | 29.94100 | -88.12458 | 222 ft | 110 kts | 64° |
| 2026-04-11 23:36 | 29.94749 | -88.12270 | 237 ft | 112 kts | 317° |
| 2026-04-11 23:37 | 29.94884 | -88.13004 | 262 ft | 97 kts | 264° |
| 2026-04-11 23:37 | 29.94837 | -88.13752 | 249 ft | 90 kts | 262° |
| 2026-04-11 23:37 | 29.94704 | -88.14465 | 236 ft | 88 kts | 253° |
| 2026-04-11 23:37 | 29.94507 | -88.15129 | 244 ft | 88 kts | 247° |
| 2026-04-11 23:38 | 29.94246 | -88.15767 | 236 ft | 86 kts | 239° |
| 2026-04-11 23:38 | 29.93933 | -88.16362 | 247 ft | 87 kts | 232° |
| 2026-04-11 23:38 | 29.93566 | -88.16895 | 244 ft | 87 kts | 226° |
| 2026-04-11 23:38 | 29.93152 | -88.17398 | 245 ft | 85 kts | 217° |
| 2026-04-11 23:39 | 29.92704 | -88.17818 | 254 ft | 83 kts | 212° |
| 2026-04-11 23:39 | 29.92202 | -88.18191 | 252 ft | 82 kts | 205° |
| 2026-04-11 23:39 | 29.91691 | -88.18472 | 248 ft | 83 kts | 200° |
| 2026-04-11 23:39 | 29.91126 | -88.18649 | 205 ft | 88 kts | 185° |
| 2026-04-11 23:40 | 29.90581 | -88.18814 | 239 ft | 84 kts | 189° |
| 2026-04-11 23:40 | 29.90035 | -88.19094 | 288 ft | 98 kts | 223° |
| 2026-04-11 23:40 | 29.89889 | -88.19842 | 304 ft | 100 kts | 274° |
| 2026-04-11 23:40 | 29.90369 | -88.20407 | 253 ft | 98 kts | 341° |
| 2026-04-11 23:41 | 29.91019 | -88.20284 | 261 ft | 92 kts | 42° |
| 2026-04-11 23:41 | 29.91358 | -88.19726 | 252 ft | 84 kts | 62° |
| 2026-04-11 23:41 | 29.91635 | -88.19149 | 253 ft | 85 kts | 65° |
| 2026-04-11 23:41 | 29.91904 | -88.18547 | 245 ft | 83 kts | 66° |
| 2026-04-11 23:42 | 29.92169 | -88.17948 | 249 ft | 84 kts | 68° |
| 2026-04-11 23:42 | 29.92426 | -88.17343 | 243 ft | 84 kts | 68° |
| 2026-04-11 23:42 | 29.92664 | -88.16739 | 247 ft | 81 kts | 71° |
| 2026-04-11 23:43 | 29.93121 | -88.15508 | 254 ft | 88 kts | 75° |
| 2026-04-11 23:43 | 29.93328 | -88.14872 | 252 ft | 86 kts | 76° |
| 2026-04-11 23:43 | 29.93715 | -88.13573 | 258 ft | 84 kts | 76° |
| 2026-04-11 23:44 | 29.93878 | -88.12928 | 272 ft | 83 kts | 79° |
| 2026-04-11 23:44 | 29.94026 | -88.12271 | 223 ft | 81 kts | 87° |
| 2026-04-11 23:44 | 29.94117 | -88.11615 | 252 ft | 90 kts | 84° |
| 2026-04-11 23:44 | 29.94230 | -88.10963 | 246 ft | 85 kts | 83° |
| 2026-04-11 23:45 | 29.94340 | -88.10303 | 254 ft | 83 kts | 85° |
| 2026-04-11 23:45 | 29.94431 | -88.09652 | 249 ft | 81 kts | 88° |
| 2026-04-11 23:45 | 29.94510 | -88.09010 | 248 ft | 81 kts | 87° |
| 2026-04-11 23:45 | 29.94721 | -88.08372 | 241 ft | 93 kts | 40° |
| 2026-04-11 23:46 | 29.95343 | -88.08408 | 265 ft | 106 kts | 296° |
| 2026-04-11 23:46 | 29.95453 | -88.09182 | 272 ft | 95 kts | 266° |
| 2026-04-11 23:46 | 29.95363 | -88.09914 | 252 ft | 91 kts | 256° |
| 2026-04-11 23:46 | 29.95252 | -88.10622 | 255 ft | 89 kts | 254° |
| 2026-04-11 23:47 | 29.95124 | -88.11329 | 255 ft | 92 kts | 252° |
| 2026-04-11 23:47 | 29.94989 | -88.12034 | 249 ft | 90 kts | 254° |
| 2026-04-11 23:47 | 29.94846 | -88.12726 | 249 ft | 89 kts | 252° |
| 2026-04-11 23:47 | 29.94692 | -88.13419 | 248 ft | 89 kts | 252° |
| 2026-04-11 23:48 | 29.94522 | -88.14100 | 242 ft | 85 kts | 249° |
| 2026-04-11 23:48 | 29.94351 | -88.14774 | 246 ft | 84 kts | 249° |
| 2026-04-11 23:48 | 29.94174 | -88.15438 | 248 ft | 89 kts | 249° |
| 2026-04-11 23:48 | 29.93987 | -88.16099 | 254 ft | 86 kts | 246° |
| 2026-04-11 23:49 | 29.93686 | -88.16705 | 268 ft | 88 kts | 199° |
| 2026-04-11 23:49 | 29.93154 | -88.16546 | 261 ft | 88 kts | 123° |
| 2026-04-11 23:49 | 29.93161 | -88.15871 | 226 ft | 86 kts | 79° |
| 2026-04-11 23:49 | 29.93320 | -88.15215 | 240 ft | 83 kts | 78° |
| 2026-04-11 23:50 | 29.93474 | -88.14565 | 246 ft | 87 kts | 76° |
| 2026-04-11 23:50 | 29.93627 | -88.13900 | 247 ft | 84 kts | 78° |
| 2026-04-11 23:50 | 29.93775 | -88.13252 | 250 ft | 85 kts | 76° |
| 2026-04-11 23:50 | 29.93924 | -88.12601 | 254 ft | 87 kts | 78° |
| 2026-04-11 23:51 | 29.94069 | -88.11945 | 247 ft | 88 kts | 80° |
| 2026-04-11 23:51 | 29.94215 | -88.11302 | 242 ft | 81 kts | 82° |
| 2026-04-11 23:51 | 29.94367 | -88.10640 | 244 ft | 82 kts | 79° |
| 2026-04-11 23:51 | 29.94505 | -88.10007 | 257 ft | 84 kts | 83° |
| 2026-04-11 23:52 | 29.94648 | -88.09374 | 243 ft | 84 kts | 79° |
| 2026-04-11 23:52 | 29.94791 | -88.08719 | 246 ft | 85 kts | 81° |
| 2026-04-11 23:52 | 29.94980 | -88.08073 | 256 ft | 96 kts | 65° |
| 2026-04-11 23:52 | 29.95502 | -88.07707 | 261 ft | 95 kts | 5° |
| 2026-04-11 23:53 | 29.96080 | -88.08114 | 268 ft | 105 kts | 288° |
| 2026-04-11 23:53 | 29.96109 | -88.08834 | 266 ft | 90 kts | 259° |
| 2026-04-11 23:53 | 29.95952 | -88.09544 | 255 ft | 90 kts | 246° |
| 2026-04-11 23:53 | 29.95775 | -88.10240 | 241 ft | 90 kts | 249° |
| 2026-04-11 23:54 | 29.95592 | -88.10928 | 251 ft | 90 kts | 246° |
| 2026-04-11 23:54 | 29.95378 | -88.11588 | 230 ft | 89 kts | 246° |
| 2026-04-11 23:54 | 29.95035 | -88.12368 | 185 ft | 117 kts | 241° |
| 2026-04-11 23:54 | 29.94649 | -88.13303 | 245 ft | 129 kts | 243° |
| 2026-04-11 23:55 | 29.94289 | -88.14233 | 247 ft | 124 kts | 245° |
| 2026-04-11 23:55 | 29.93971 | -88.15145 | 257 ft | 126 kts | 246° |
| 2026-04-11 23:55 | 29.93635 | -88.16078 | 242 ft | 123 kts | 245° |
| 2026-04-11 23:55 | 29.93311 | -88.17016 | 254 ft | 128 kts | 244° |
| 2026-04-11 23:56 | 29.92993 | -88.17962 | 248 ft | 125 kts | 244° |
| 2026-04-11 23:56 | 29.92671 | -88.18915 | 242 ft | 129 kts | 246° |
| 2026-04-11 23:56 | 29.92372 | -88.19875 | 251 ft | 128 kts | 248° |
| 2026-04-11 23:56 | 29.92082 | -88.20843 | 239 ft | 127 kts | 248° |
| 2026-04-11 23:57 | 29.91783 | -88.21812 | 230 ft | 128 kts | 247° |
| 2026-04-11 23:57 | 29.91482 | -88.22783 | 244 ft | 129 kts | 246° |
| 2026-04-11 23:57 | 29.91184 | -88.23752 | 242 ft | 129 kts | 248° |
| 2026-04-11 23:57 | 29.90888 | -88.24725 | 243 ft | 130 kts | 248° |
| 2026-04-11 23:58 | 29.90593 | -88.25688 | 242 ft | 127 kts | 248° |
| 2026-04-11 23:58 | 29.90303 | -88.26652 | 236 ft | 128 kts | 249° |
| 2026-04-11 23:58 | 29.90006 | -88.27623 | 237 ft | 126 kts | 248° |
| 2026-04-11 23:58 | 29.89729 | -88.28575 | 235 ft | 128 kts | 250° |
| 2026-04-11 23:59 | 29.89435 | -88.29533 | 240 ft | 123 kts | 249° |
| 2026-04-11 23:59 | 29.89151 | -88.30494 | 251 ft | 128 kts | 248° |
| 2026-04-11 23:59 | 29.88866 | -88.31455 | 237 ft | 128 kts | 249° |
| 2026-04-11 23:59 | 29.88583 | -88.32412 | 248 ft | 127 kts | 248° |
| 2026-04-12 00:00 | 29.88298 | -88.33392 | 246 ft | 128 kts | 248° |
| 2026-04-12 00:00 | 29.88104 | -88.34044 | 252 ft | 128 kts | 249° |
| 2026-04-12 00:00 | 29.87808 | -88.35014 | 246 ft | 128 kts | 249° |
| 2026-04-12 00:00 | 29.87517 | -88.35976 | 253 ft | 125 kts | 249° |
| 2026-04-12 00:01 | 29.87223 | -88.36960 | 260 ft | 131 kts | 249° |
| 2026-04-12 00:01 | 29.86923 | -88.37929 | 253 ft | 130 kts | 248° |
| 2026-04-12 00:01 | 29.86634 | -88.38897 | 255 ft | 129 kts | 247° |
| 2026-04-12 00:01 | 29.86337 | -88.39875 | 249 ft | 130 kts | 248° |
| 2026-04-12 00:02 | 29.86043 | -88.40852 | 243 ft | 129 kts | 249° |
| 2026-04-12 00:02 | 29.85521 | -88.41679 | 258 ft | 127 kts | 212° |
| 2026-04-12 00:02 | 29.84719 | -88.41989 | 278 ft | 121 kts | 172° |
| 2026-04-12 00:02 | 29.83962 | -88.41589 | 291 ft | 121 kts | 126° |
| 2026-04-12 00:03 | 29.83636 | -88.40710 | 277 ft | 122 kts | 83° |
| 2026-04-12 00:03 | 29.83707 | -88.39731 | 242 ft | 122 kts | 89° |
| 2026-04-12 00:03 | 29.83796 | -88.38782 | 260 ft | 118 kts | 88° |
| 2026-04-12 00:03 | 29.83873 | -88.37815 | 248 ft | 120 kts | 87° |
| 2026-04-12 00:04 | 29.83955 | -88.36876 | 245 ft | 119 kts | 89° |
| 2026-04-12 00:04 | 29.84036 | -88.35915 | 252 ft | 118 kts | 85° |
| 2026-04-12 00:04 | 29.84130 | -88.34977 | 247 ft | 118 kts | 85° |
| 2026-04-12 00:04 | 29.84202 | -88.34018 | 253 ft | 121 kts | 86° |
| 2026-04-12 00:05 | 29.84289 | -88.33074 | 240 ft | 119 kts | 88° |
| 2026-04-12 00:05 | 29.84377 | -88.32115 | 245 ft | 118 kts | 86° |
| 2026-04-12 00:05 | 29.84457 | -88.31180 | 243 ft | 119 kts | 88° |
| 2026-04-12 00:05 | 29.84544 | -88.30213 | 241 ft | 121 kts | 85° |
| 2026-04-12 00:06 | 29.84636 | -88.29271 | 241 ft | 120 kts | 88° |
| 2026-04-12 00:06 | 29.84730 | -88.28310 | 243 ft | 120 kts | 88° |
| 2026-04-12 00:06 | 29.84819 | -88.27358 | 257 ft | 120 kts | 88° |
| 2026-04-12 00:06 | 29.84915 | -88.26393 | 247 ft | 120 kts | 88° |
| 2026-04-12 00:07 | 29.85014 | -88.25437 | 255 ft | 121 kts | 87° |
| 2026-04-12 00:07 | 29.85116 | -88.24488 | 244 ft | 123 kts | 87° |
| 2026-04-12 00:07 | 29.85209 | -88.23505 | 244 ft | 117 kts | 87° |
| 2026-04-12 00:07 | 29.85308 | -88.22553 | 254 ft | 126 kts | 86° |
| 2026-04-12 00:08 | 29.85399 | -88.21579 | 254 ft | 119 kts | 87° |
| 2026-04-12 00:08 | 29.85496 | -88.20606 | 241 ft | 122 kts | 86° |
| 2026-04-12 00:08 | 29.85595 | -88.19646 | 241 ft | 120 kts | 85° |
| 2026-04-12 00:08 | 29.85684 | -88.18696 | 249 ft | 122 kts | 88° |
| 2026-04-12 00:09 | 29.85773 | -88.17719 | 248 ft | 122 kts | 86° |
| 2026-04-12 00:09 | 29.85844 | -88.16770 | 244 ft | 120 kts | 87° |
| 2026-04-12 00:09 | 29.85934 | -88.15804 | 259 ft | 120 kts | 84° |
| 2026-04-12 00:09 | 29.86024 | -88.14837 | 251 ft | 119 kts | 87° |
| 2026-04-12 00:10 | 29.86111 | -88.13897 | 243 ft | 120 kts | 87° |
| 2026-04-12 00:10 | 29.86193 | -88.12938 | 255 ft | 121 kts | 87° |
| 2026-04-12 00:10 | 29.86277 | -88.11983 | 258 ft | 120 kts | 86° |
| 2026-04-12 00:10 | 29.86361 | -88.11017 | 246 ft | 120 kts | 87° |
| 2026-04-12 00:11 | 29.86449 | -88.10081 | 251 ft | 119 kts | 87° |
| 2026-04-12 00:11 | 29.86544 | -88.09116 | 249 ft | 119 kts | 87° |
| 2026-04-12 00:11 | 29.86637 | -88.08154 | 256 ft | 120 kts | 87° |
| 2026-04-12 00:11 | 29.86726 | -88.07204 | 251 ft | 120 kts | 87° |
| 2026-04-12 00:12 | 29.86814 | -88.06248 | 246 ft | 120 kts | 87° |
| 2026-04-12 00:12 | 29.86915 | -88.05288 | 254 ft | 121 kts | 86° |
| 2026-04-12 00:12 | 29.87001 | -88.04332 | 246 ft | 122 kts | 88° |
| 2026-04-12 00:12 | 29.87095 | -88.03373 | 246 ft | 123 kts | 88° |
| 2026-04-12 00:13 | 29.87173 | -88.02392 | 245 ft | 120 kts | 86° |
| 2026-04-12 00:13 | 29.87250 | -88.01434 | 252 ft | 119 kts | 87° |
| 2026-04-12 00:13 | 29.87347 | -88.00469 | 254 ft | 123 kts | 86° |
| 2026-04-12 00:13 | 29.87440 | -87.99497 | 248 ft | 121 kts | 87° |
| 2026-04-12 00:14 | 29.87533 | -87.98527 | 250 ft | 120 kts | 88° |
| 2026-04-12 00:14 | 29.87626 | -87.97556 | 246 ft | 122 kts | 86° |
| 2026-04-12 00:14 | 29.87721 | -87.96591 | 241 ft | 122 kts | 87° |
| 2026-04-12 00:14 | 29.87812 | -87.95615 | 245 ft | 123 kts | 86° |
| 2026-04-12 00:15 | 29.87904 | -87.94642 | 246 ft | 120 kts | 86° |
| 2026-04-12 00:15 | 29.88001 | -87.93660 | 249 ft | 124 kts | 86° |
| 2026-04-12 00:15 | 29.88095 | -87.92681 | 257 ft | 121 kts | 90° |
| 2026-04-12 00:15 | 29.88251 | -87.91742 | 334 ft | 124 kts | 79° |
| 2026-04-12 00:16 | 29.88080 | -87.90845 | 252 ft | 107 kts | 142° |
| 2026-04-12 00:16 | 29.87415 | -87.90957 | 249 ft | 104 kts | 229° |
| 2026-04-12 00:16 | 29.87383 | -87.91811 | 279 ft | 113 kts | 276° |
| 2026-04-12 00:16 | 29.87860 | -87.92410 | 585 ft | 93 kts | 335° |
| 2026-04-12 00:17 | 29.88491 | -87.92181 | 380 ft | 129 kts | 44° |
| 2026-04-12 00:17 | 29.88595 | -87.91346 | 164 ft | 96 kts | 122° |
| 2026-04-12 00:17 | 29.88074 | -87.90927 | 237 ft | 112 kts | 173° |
| 2026-04-12 00:17 | 29.87224 | -87.91094 | 231 ft | 131 kts | 194° |
| 2026-04-12 00:18 | 29.86623 | -87.92004 | 197 ft | 160 kts | 261° |
| 2026-04-12 00:18 | 29.86985 | -87.93194 | 452 ft | 164 kts | 301° |
| 2026-04-12 00:18 | 29.88051 | -87.93568 | 386 ft | 171 kts | 11° |
| 2026-04-12 00:18 | 29.89245 | -87.93231 | 434 ft | 178 kts | 18° |
| 2026-04-12 00:19 | 29.90379 | -87.92792 | 859 ft | 170 kts | 21° |
| 2026-04-12 00:19 | 29.91525 | -87.92348 | 1031 ft | 184 kts | 18° |
| 2026-04-12 00:19 | 29.92497 | -87.93023 | 324 ft | 180 kts | 288° |
| 2026-04-12 00:19 | 29.92675 | -87.94464 | 299 ft | 187 kts | 275° |
| 2026-04-12 00:20 | 29.92862 | -87.95945 | 282 ft | 183 kts | 275° |
| 2026-04-12 00:20 | 29.92933 | -87.97419 | 339 ft | 186 kts | 269° |
| 2026-04-12 00:20 | 29.92875 | -87.98905 | 236 ft | 189 kts | 263° |
| 2026-04-12 00:20 | 29.92748 | -88.00405 | 215 ft | 187 kts | 262° |
| 2026-04-12 00:21 | 29.92608 | -88.01892 | 223 ft | 187 kts | 263° |
| 2026-04-12 00:21 | 29.92487 | -88.03393 | 205 ft | 188 kts | 264° |
| 2026-04-12 00:21 | 29.92431 | -88.04904 | 201 ft | 187 kts | 267° |
| 2026-04-12 00:21 | 29.92451 | -88.06338 | 198 ft | 171 kts | 268° |
| 2026-04-12 00:22 | 29.92548 | -88.07647 | 236 ft | 149 kts | 273° |
| 2026-04-12 00:22 | 29.92478 | -88.08806 | 238 ft | 137 kts | 251° |
| 2026-04-12 00:22 | 29.92332 | -88.09859 | 208 ft | 130 kts | 276° |
| 2026-04-12 00:22 | 29.92375 | -88.10888 | 216 ft | 127 kts | 268° |
| 2026-04-12 00:23 | 29.92360 | -88.11893 | 221 ft | 125 kts | 270° |
| 2026-04-12 00:23 | 29.92355 | -88.12885 | 219 ft | 126 kts | 268° |
| 2026-04-12 00:23 | 29.92350 | -88.13891 | 234 ft | 124 kts | 268° |
| 2026-04-12 00:23 | 29.92348 | -88.14872 | 226 ft | 125 kts | 266° |
| 2026-04-12 00:24 | 29.92345 | -88.15977 | 194 ft | 143 kts | 268° |
| 2026-04-12 00:24 | 29.92358 | -88.17043 | 217 ft | 128 kts | 268° |
| 2026-04-12 00:24 | 29.92363 | -88.17987 | 274 ft | 99 kts | 269° |
| 2026-04-12 00:24 | 29.92631 | -88.18841 | 265 ft | 138 kts | 303° |
| 2026-04-12 00:25 | 29.93495 | -88.19279 | 217 ft | 141 kts | 12° |
| 2026-04-12 00:25 | 29.94242 | -88.18656 | 236 ft | 120 kts | 45° |
| 2026-04-12 00:25 | 29.94810 | -88.17943 | 218 ft | 127 kts | 59° |
| 2026-04-12 00:25 | 29.95080 | -88.17025 | 240 ft | 119 kts | 86° |
| 2026-04-12 00:26 | 29.94864 | -88.16185 | 226 ft | 109 kts | 142° |
| 2026-04-12 00:26 | 29.94249 | -88.16436 | 278 ft | 100 kts | 218° |
| 2026-04-12 00:26 | 29.93813 | -88.16924 | 297 ft | 68 kts | 213° |
| 2026-04-12 00:26 | 29.93491 | -88.17221 | 293 ft | 49 kts | 213° |
| 2026-04-12 00:27 | 29.93268 | -88.17423 | 305 ft | 29 kts | 217° |
| 2026-04-12 00:27 | 29.93144 | -88.17546 | 296 ft | 19 kts | 214° |
| 2026-04-12 00:27 | 29.93088 | -88.17600 | 257 ft | 4 kts | 213° |
| 2026-04-12 00:27 | 29.93090 | -88.17609 | 250 ft | 2 kts | 208° |
| 2026-04-12 00:28 | 29.93085 | -88.17616 | 256 ft | 1 kts | 214° |
| 2026-04-12 00:28 | 29.93086 | -88.17613 | 265 ft | 0 kts | 207° |
| 2026-04-12 00:28 | 29.93085 | -88.17614 | 273 ft | 2 kts | 206° |
| 2026-04-12 00:28 | 29.93083 | -88.17607 | 283 ft | 1 kts | 205° |
| 2026-04-12 00:29 | 29.93082 | -88.17606 | 295 ft | 0 kts | 205° |
| 2026-04-12 00:29 | 29.93081 | -88.17604 | 301 ft | 0 kts | 205° |
| 2026-04-12 00:29 | 29.93080 | -88.17603 | 308 ft | 1 kts | 205° |
| 2026-04-12 00:29 | 29.93077 | -88.17606 | 306 ft | 0 kts | 205° |
| 2026-04-12 00:30 | 29.93080 | -88.17611 | 282 ft | 1 kts | 205° |
| 2026-04-12 00:30 | 29.93084 | -88.17607 | 261 ft | 1 kts | 205° |
| 2026-04-12 00:30 | 29.93086 | -88.17604 | 246 ft | 1 kts | 205° |
| 2026-04-12 00:30 | 29.93086 | -88.17605 | 237 ft | 0 kts | 205° |
| 2026-04-12 00:31 | 29.93088 | -88.17594 | 228 ft | 2 kts | 205° |
| 2026-04-12 00:31 | 29.93090 | -88.17589 | 228 ft | 1 kts | 204° |
| 2026-04-12 00:31 | 29.93095 | -88.17578 | 232 ft | 0 kts | 204° |
| 2026-04-12 00:31 | 29.93093 | -88.17580 | 246 ft | 0 kts | 204° |
| 2026-04-12 00:32 | 29.93092 | -88.17580 | 268 ft | 1 kts | 204° |
| 2026-04-12 00:32 | 29.93089 | -88.17571 | 294 ft | 1 kts | 204° |
| 2026-04-12 00:32 | 29.93087 | -88.17582 | 321 ft | 5 kts | 203° |
| 2026-04-12 00:32 | 29.93076 | -88.17593 | 329 ft | 3 kts | 202° |
| 2026-04-12 00:33 | 29.93073 | -88.17601 | 293 ft | 1 kts | 211° |
| 2026-04-12 00:33 | 29.93076 | -88.17602 | 241 ft | 0 kts | 204° |
| 2026-04-12 00:33 | 29.93083 | -88.17606 | 258 ft | 1 kts | 202° |
| 2026-04-12 00:33 | 29.93080 | -88.17603 | 280 ft | 1 kts | 202° |
| 2026-04-12 00:34 | 29.93087 | -88.17599 | 297 ft | 1 kts | 202° |
| 2026-04-12 00:34 | 29.93087 | -88.17603 | 261 ft | 1 kts | 202° |
| 2026-04-12 00:34 | 29.93095 | -88.17605 | 256 ft | 4 kts | 202° |
| 2026-04-12 00:34 | 29.93090 | -88.17610 | 269 ft | 0 kts | 201° |
| 2026-04-12 00:35 | 29.93089 | -88.17604 | 280 ft | 1 kts | 201° |
| 2026-04-12 00:35 | 29.93090 | -88.17602 | 277 ft | 1 kts | 202° |
| 2026-04-12 00:35 | 29.93089 | -88.17603 | 276 ft | 3 kts | 202° |
| 2026-04-12 00:35 | 29.93092 | -88.17600 | 280 ft | 2 kts | 202° |
| 2026-04-12 00:36 | 29.93089 | -88.17594 | 284 ft | 1 kts | 202° |
| 2026-04-12 00:36 | 29.93091 | -88.17596 | 292 ft | 1 kts | 202° |
| 2026-04-12 00:36 | 29.93090 | -88.17596 | 304 ft | 0 kts | 202° |
| 2026-04-12 00:36 | 29.93091 | -88.17595 | 317 ft | 1 kts | 202° |
| 2026-04-12 00:37 | 29.93101 | -88.17591 | 331 ft | 2 kts | 202° |
| 2026-04-12 00:37 | 29.93113 | -88.17585 | 353 ft | 2 kts | 202° |
| 2026-04-12 00:37 | 29.93126 | -88.17579 | 379 ft | 2 kts | 202° |
| 2026-04-12 00:37 | 29.93107 | -88.17580 | 347 ft | 4 kts | 202° |
| 2026-04-12 00:38 | 29.93108 | -88.17584 | 292 ft | 2 kts | 202° |
| 2026-04-12 00:38 | 29.93089 | -88.17589 | 266 ft | 2 kts | 202° |
| 2026-04-12 00:38 | 29.93079 | -88.17594 | 284 ft | 1 kts | 202° |
| 2026-04-12 00:38 | 29.93085 | -88.17597 | 288 ft | 0 kts | 204° |
| 2026-04-12 00:39 | 29.93087 | -88.17593 | 297 ft | 1 kts | 206° |
| 2026-04-12 00:39 | 29.93089 | -88.17594 | 310 ft | 1 kts | 206° |
| 2026-04-12 00:39 | 29.93082 | -88.17603 | 277 ft | 1 kts | 203° |
| 2026-04-12 00:40 | 29.93080 | -88.17603 | 255 ft | 1 kts | 203° |
| 2026-04-12 00:40 | 29.93082 | -88.17605 | 265 ft | 1 kts | 202° |
| 2026-04-12 00:40 | 29.93085 | -88.17601 | 296 ft | 0 kts | 202° |
| 2026-04-12 00:40 | 29.93087 | -88.17599 | 280 ft | 3 kts | 202° |
| 2026-04-12 00:41 | 29.93104 | -88.17591 | 298 ft | 3 kts | 202° |
| 2026-04-12 00:41 | 29.93118 | -88.17581 | 316 ft | 3 kts | 202° |
| 2026-04-12 00:41 | 29.93108 | -88.17574 | 295 ft | 3 kts | 202° |
| 2026-04-12 00:41 | 29.93105 | -88.17571 | 259 ft | 1 kts | 202° |
| 2026-04-12 00:42 | 29.93109 | -88.17565 | 262 ft | 2 kts | 202° |
| 2026-04-12 00:42 | 29.93111 | -88.17570 | 286 ft | 2 kts | 203° |
| 2026-04-12 00:42 | 29.93115 | -88.17579 | 309 ft | 3 kts | 203° |
| 2026-04-12 00:43 | 29.93142 | -88.17556 | 175 ft | 3 kts | 202° |
| 2026-04-12 00:43 | 29.93157 | -88.17536 | 186 ft | 3 kts | 203° |
| 2026-04-12 00:43 | 29.93176 | -88.17532 | 268 ft | 3 kts | 202° |
| 2026-04-12 00:43 | 29.93172 | -88.17528 | 381 ft | 2 kts | 202° |
| 2026-04-12 00:44 | 29.93136 | -88.17554 | 343 ft | 2 kts | 203° |
| 2026-04-12 00:44 | 29.93114 | -88.17568 | 293 ft | 5 kts | 202° |
| 2026-04-12 00:44 | 29.93102 | -88.17580 | 229 ft | 1 kts | 214° |
| 2026-04-12 00:44 | 29.93115 | -88.17576 | 204 ft | 3 kts | 207° |
| 2026-04-12 00:45 | 29.93125 | -88.17579 | 213 ft | 0 kts | 206° |
| 2026-04-12 00:45 | 29.93098 | -88.17581 | 212 ft | 0 kts | 206° |
| 2026-04-12 00:45 | 29.93097 | -88.17580 | 213 ft | 0 kts | 206° |
| 2026-04-12 00:45 | 29.93098 | -88.17580 | 212 ft | 0 kts | 206° |
| 2026-04-12 00:46 | 29.93098 | -88.17581 | 213 ft | 1 kts | 205° |
| 2026-04-12 00:46 | 29.93099 | -88.17582 | 211 ft | 0 kts | 205° |
| 2026-04-12 00:47 | 29.93099 | -88.17581 | 213 ft | 1 kts | 205° |
| 2026-04-12 00:47 | 29.93099 | -88.17580 | 213 ft | 0 kts | 205° |
| 2026-04-12 00:47 | 29.93099 | -88.17581 | 213 ft | 0 kts | 205° |
| 2026-04-12 00:47 | 29.93100 | -88.17582 | 204 ft | 0 kts | 205° |
| 2026-04-12 00:48 | 29.93100 | -88.17581 | 204 ft | 0 kts | 205° |
| 2026-04-12 00:48 | 29.93099 | -88.17581 | 205 ft | 1 kts | 205° |
| 2026-04-12 00:48 | 29.93099 | -88.17580 | 213 ft | 0 kts | 210° |
| 2026-04-12 00:48 | 29.93100 | -88.17580 | 205 ft | 0 kts | 209° |
| 2026-04-12 00:49 | 29.93100 | -88.17581 | 204 ft | 1 kts | 209° |
| 2026-04-12 00:49 | 29.93101 | -88.17581 | 205 ft | 0 kts | 209° |
| 2026-04-12 00:50 | 29.93101 | -88.17580 | 204 ft | 0 kts | 209° |
| 2026-04-12 00:50 | 29.93102 | -88.17581 | 205 ft | 1 kts | 205° |
| 2026-04-12 00:51 | 29.93102 | -88.17580 | 205 ft | 1 kts | 199° |
| 2026-04-12 00:52 | 29.93103 | -88.17581 | 205 ft | 1 kts | 202° |
| 2026-04-12 00:52 | 29.93089 | -88.17672 | 238 ft | 58 kts | 262° |
| 2026-04-12 00:53 | 29.93740 | -88.17915 | 428 ft | 135 kts | 1° |
| 2026-04-12 00:53 | 29.94659 | -88.17985 | 525 ft | 127 kts | 358° |
| 2026-04-12 00:53 | 29.95553 | -88.18055 | 553 ft | 132 kts | 357° |
| 2026-04-12 00:53 | 29.96462 | -88.18154 | 676 ft | 127 kts | 355° |
| 2026-04-12 00:54 | 29.97358 | -88.18289 | 711 ft | 134 kts | 354° |
| 2026-04-12 00:54 | 29.98316 | -88.18437 | 711 ft | 138 kts | 353° |
| 2026-04-12 00:54 | 29.99241 | -88.18568 | 705 ft | 130 kts | 354° |
| 2026-04-12 00:54 | 30.00167 | -88.18703 | 710 ft | 138 kts | 354° |
| 2026-04-12 00:55 | 30.01100 | -88.18824 | 712 ft | 134 kts | 355° |
| 2026-04-12 00:55 | 30.02027 | -88.18948 | 697 ft | 135 kts | 355° |
| 2026-04-12 00:55 | 30.02958 | -88.19071 | 714 ft | 135 kts | 354° |
| 2026-04-12 00:55 | 30.03899 | -88.19194 | 713 ft | 135 kts | 353° |
| 2026-04-12 00:56 | 30.04822 | -88.19304 | 696 ft | 133 kts | 354° |
| 2026-04-12 00:56 | 30.05747 | -88.19440 | 711 ft | 134 kts | 354° |
| 2026-04-12 00:56 | 30.06670 | -88.19570 | 711 ft | 133 kts | 355° |
| 2026-04-12 00:56 | 30.07581 | -88.19706 | 703 ft | 132 kts | 355° |
| 2026-04-12 00:57 | 30.08506 | -88.19842 | 713 ft | 134 kts | 351° |
| 2026-04-12 00:57 | 30.09418 | -88.19982 | 720 ft | 131 kts | 353° |
| 2026-04-12 00:57 | 30.10335 | -88.20122 | 721 ft | 133 kts | 352° |
| 2026-04-12 00:57 | 30.11282 | -88.20258 | 725 ft | 140 kts | 355° |
| 2026-04-12 00:58 | 30.12229 | -88.20375 | 699 ft | 137 kts | 355° |
| 2026-04-12 00:58 | 30.13157 | -88.20498 | 709 ft | 134 kts | 354° |
| 2026-04-12 00:58 | 30.14080 | -88.20625 | 704 ft | 133 kts | 355° |
| 2026-04-12 00:58 | 30.15009 | -88.20744 | 702 ft | 132 kts | 355° |
| 2026-04-12 00:59 | 30.15942 | -88.20863 | 715 ft | 137 kts | 355° |
| 2026-04-12 00:59 | 30.16859 | -88.20983 | 714 ft | 134 kts | 354° |
| 2026-04-12 00:59 | 30.17795 | -88.21086 | 723 ft | 135 kts | 355° |
| 2026-04-12 00:59 | 30.18739 | -88.21189 | 723 ft | 137 kts | 354° |
| 2026-04-12 01:00 | 30.19671 | -88.21279 | 702 ft | 132 kts | 354° |
| 2026-04-12 01:00 | 30.20604 | -88.21387 | 718 ft | 136 kts | 355° |
| 2026-04-12 01:00 | 30.21521 | -88.21485 | 719 ft | 129 kts | 355° |
| 2026-04-12 01:00 | 30.22429 | -88.21591 | 718 ft | 134 kts | 355° |
| 2026-04-12 01:01 | 30.23374 | -88.21698 | 702 ft | 135 kts | 355° |
| 2026-04-12 01:01 | 30.24300 | -88.21814 | 717 ft | 132 kts | 354° |
| 2026-04-12 01:01 | 30.25231 | -88.21900 | 715 ft | 138 kts | 355° |
| 2026-04-12 01:01 | 30.26153 | -88.22010 | 697 ft | 137 kts | 353° |
| 2026-04-12 01:02 | 30.27095 | -88.22124 | 720 ft | 131 kts | 354° |
| 2026-04-12 01:02 | 30.28017 | -88.22233 | 722 ft | 133 kts | 355° |
| 2026-04-12 01:02 | 30.28942 | -88.22337 | 719 ft | 131 kts | 353° |
| 2026-04-12 01:02 | 30.29865 | -88.22440 | 722 ft | 135 kts | 355° |
| 2026-04-12 01:03 | 30.30807 | -88.22551 | 720 ft | 138 kts | 355° |
| 2026-04-12 01:03 | 30.31732 | -88.22667 | 716 ft | 135 kts | 354° |
| 2026-04-12 01:03 | 30.32660 | -88.22780 | 721 ft | 131 kts | 354° |
| 2026-04-12 01:03 | 30.33579 | -88.22881 | 724 ft | 132 kts | 355° |
| 2026-04-12 01:04 | 30.34490 | -88.22982 | 717 ft | 132 kts | 355° |
| 2026-04-12 01:04 | 30.35417 | -88.23087 | 716 ft | 131 kts | 355° |
| 2026-04-12 01:04 | 30.36346 | -88.23195 | 719 ft | 133 kts | 355° |
| 2026-04-12 01:04 | 30.37258 | -88.23310 | 705 ft | 135 kts | 354° |
| 2026-04-12 01:05 | 30.38171 | -88.23418 | 727 ft | 134 kts | 355° |
| 2026-04-12 01:05 | 30.39084 | -88.23525 | 718 ft | 133 kts | 355° |
| 2026-04-12 01:05 | 30.40015 | -88.23632 | 728 ft | 135 kts | 353° |
| 2026-04-12 01:05 | 30.40949 | -88.23751 | 715 ft | 133 kts | 356° |
| 2026-04-12 01:06 | 30.41879 | -88.23855 | 736 ft | 135 kts | 356° |
| 2026-04-12 01:06 | 30.42818 | -88.23964 | 716 ft | 134 kts | 354° |
| 2026-04-12 01:06 | 30.43743 | -88.24048 | 707 ft | 135 kts | 356° |
| 2026-04-12 01:06 | 30.44679 | -88.24142 | 733 ft | 130 kts | 353° |
| 2026-04-12 01:07 | 30.45606 | -88.24228 | 719 ft | 137 kts | 355° |
| 2026-04-12 01:07 | 30.46527 | -88.24326 | 721 ft | 133 kts | 355° |
| 2026-04-12 01:07 | 30.47450 | -88.24411 | 727 ft | 132 kts | 354° |
| 2026-04-12 01:08 | 30.49205 | -88.24600 | 737 ft | 134 kts | 354° |
| 2026-04-12 01:08 | 30.50181 | -88.24698 | 718 ft | 139 kts | 356° |
| 2026-04-12 01:08 | 30.51100 | -88.24813 | 738 ft | 131 kts | 353° |
| 2026-04-12 01:08 | 30.52019 | -88.24921 | 730 ft | 132 kts | 354° |
| 2026-04-12 01:09 | 30.52943 | -88.25028 | 725 ft | 133 kts | 355° |
| 2026-04-12 01:09 | 30.53877 | -88.25141 | 728 ft | 130 kts | 356° |
| 2026-04-12 01:09 | 30.54811 | -88.25225 | 733 ft | 131 kts | 356° |
| 2026-04-12 01:09 | 30.55725 | -88.25321 | 722 ft | 131 kts | 353° |
| 2026-04-12 01:10 | 30.56644 | -88.25317 | 734 ft | 133 kts | 359° |
| 2026-04-12 01:10 | 30.57569 | -88.25286 | 691 ft | 134 kts | 1° |
| 2026-04-12 01:10 | 30.58477 | -88.25225 | 721 ft | 132 kts | 13° |
| 2026-04-12 01:10 | 30.59304 | -88.24749 | 727 ft | 131 kts | 36° |
| 2026-04-12 01:11 | 30.60090 | -88.24210 | 718 ft | 134 kts | 32° |
| 2026-04-12 01:11 | 30.60893 | -88.23659 | 727 ft | 131 kts | 33° |
| 2026-04-12 01:11 | 30.61678 | -88.23108 | 725 ft | 131 kts | 31° |
| 2026-04-12 01:11 | 30.62445 | -88.22562 | 720 ft | 131 kts | 32° |
| 2026-04-12 01:12 | 30.63221 | -88.22010 | 703 ft | 130 kts | 33° |
| 2026-04-12 01:12 | 30.64009 | -88.21458 | 728 ft | 134 kts | 32° |
| 2026-04-12 01:12 | 30.64850 | -88.21048 | 732 ft | 133 kts | 15° |
| 2026-04-12 01:12 | 30.65729 | -88.21279 | 690 ft | 133 kts | 332° |
| 2026-04-12 01:13 | 30.66518 | -88.21871 | 631 ft | 135 kts | 322° |
| 2026-04-12 01:13 | 30.67204 | -88.22482 | 647 ft | 120 kts | 319° |
| 2026-04-12 01:13 | 30.67833 | -88.23039 | 522 ft | 100 kts | 320° |
| 2026-04-12 01:13 | 30.68330 | -88.23472 | 390 ft | 76 kts | 315° |
| 2026-04-12 01:14 | 30.68643 | -88.23749 | 278 ft | 42 kts | 313° |
| 2026-04-12 01:14 | 30.68781 | -88.23880 | 236 ft | 19 kts | 322° |
| 2026-04-12 01:14 | 30.68829 | -88.23920 | 226 ft | 7 kts | 323° |
| 2026-04-12 01:14 | 30.68878 | -88.23961 | 225 ft | 9 kts | 324° |
| 2026-04-12 01:15 | 30.68929 | -88.24002 | 219 ft | 10 kts | 323° |
| 2026-04-12 01:15 | 30.68982 | -88.24047 | 217 ft | 5 kts | 325° |
| 2026-04-12 01:15 | 30.69021 | -88.24079 | 216 ft | 9 kts | 321° |
| 2026-04-12 01:15 | 30.69076 | -88.24126 | 215 ft | 12 kts | 324° |
| 2026-04-12 01:16 | 30.69148 | -88.24186 | 216 ft | 14 kts | 325° |
| 2026-04-12 01:16 | 30.69230 | -88.24255 | 218 ft | 14 kts | 323° |
| 2026-04-12 01:16 | 30.69311 | -88.24323 | 217 ft | 15 kts | 323° |
| 2026-04-12 01:16 | 30.69379 | -88.24365 | 218 ft | 8 kts | 353° |
| 2026-04-12 01:17 | 30.69423 | -88.24361 | 219 ft | 5 kts | 21° |
| 2026-04-12 01:17 | 30.69451 | -88.24345 | 220 ft | 4 kts | 40° |
| 2026-04-12 01:17 | 30.69462 | -88.24312 | 220 ft | 3 kts | 116° |
| 2026-04-12 01:17 | 30.69462 | -88.24278 | 221 ft | 6 kts | 116° |
| 2026-04-12 01:18 | 30.69442 | -88.24262 | 220 ft | 0 kts | 171° |
| 2026-04-12 01:18 | 30.69436 | -88.24261 | 220 ft | 0 kts | 176° |